Etusivu
METAR-TAF:

METAR-TAF

Lentoasemat :

Pantelleria, Italia

Leveyspiiri: 36-49N, Pituuspiiri: 011-58E, korkeus merenpinnasta: 191 m

Tämänhetkinen sää

Tämä raportti tehtiin 7 tuntia ja 47 minuuttia sitten, kello 17.50 UTC
Tuuli 18 kn lännestä
Lämpötila 20°C
Kosteus 78%
Ilmanpaine 1009 hPa
Näkyvyys 10 km tai enemmän
Muutamia pilviä 1800 ft:n korkeudessa

METAR: LICG 051750Z 27018KT 9999 FEW018 20/16 Q1009

Aika: 03:37 (01:37 UTC)

Sääennuste

Tämä raportti tehtiin 8 tuntia ja 37 minuuttia sitten, kello 17.00 UTC
Ennuste voimassa 05. päivästä klo 18 UTC - 06. päivään klo 03 UTC
Tuuli 18 kn lännestä/luoteesta puuskistuen 28 kn:hen
Näkyvyys 10 km tai enemmän
Hajanaisia pilviä 3000 ft:n korkeudessa

TAF: LICG 051700Z 0518/0603 30018G28KT 9999 SCT030

Säähavainnot ja -ennusteet yli 4000 lentoasemalta (METAR- ja TAF-raportit).

Käytössä olevat sääasemat on merkitty karttaan keltaisilla ja punaisilla pisteillä.

Aseta hiiri pisteen päälle nähdäksesi sääaseman nimen.

Klikkaa sitten nähdäksesi säähavainnot ja -ennusteet.

Kartan vaihtaminen: klikkaa mustalla rastilla varustettuja vihreitä pisteitä, niin voit zoomata sisään; viivalla varustettua vihreää pistettä, niin voit zoomata ulos tai vihreitä nuolia, niin pääset viereisille kartoille.


METAR-TAF: